createdAt,value
2024-02-07T00:00:37.895Z,96931.75
2024-02-07T00:03:05.131Z,96931.16
2024-02-07T00:05:32.123Z,96934.75
2024-02-07T00:07:59.209Z,96927.34
2024-02-07T00:10:26.021Z,96934.78
2024-02-07T00:12:52.957Z,96926.88
2024-02-07T00:15:20.629Z,96919.59
2024-02-07T00:17:48.513Z,96905.81
2024-02-07T00:20:15.901Z,96921.06
2024-02-07T00:22:43.020Z,96918.28
2024-02-07T00:25:09.958Z,96917.84
2024-02-07T00:27:36.833Z,96916.28
2024-02-07T00:30:04.504Z,96914.91
2024-02-07T00:32:31.922Z,96907.19
2024-02-07T00:34:58.879Z,96916.84
2024-02-07T00:37:25.956Z,96917.31
2024-02-07T00:39:52.655Z,96909.56
2024-02-07T00:42:20.156Z,96913.94
2024-02-07T00:44:46.822Z,96908.53
2024-02-07T00:47:14.243Z,96904.50
2024-02-07T00:49:41.317Z,96904.06
2024-02-07T00:52:08.534Z,96908.72
2024-02-07T00:54:35.574Z,96897.72
2024-02-07T00:57:02.639Z,96894.19
2024-02-07T00:59:29.473Z,96898.53
2024-02-07T01:01:56.330Z,96889.09
2024-02-07T01:04:23.436Z,96886.00
2024-02-07T01:06:50.310Z,96889.13
2024-02-07T01:09:17.567Z,96887.41
2024-02-07T01:11:44.585Z,96888.50
2024-02-07T01:14:11.469Z,96883.22
2024-02-07T01:16:38.352Z,96891.78
2024-02-07T01:19:05.369Z,96871.31
2024-02-07T01:21:32.300Z,96875.34
2024-02-07T01:23:59.203Z,96877.53
2024-02-07T01:26:26.004Z,96880.50
2024-02-07T01:28:53.012Z,96878.91
2024-02-07T01:31:22.775Z,96876.47
2024-02-07T01:33:50.856Z,96870.25
2024-02-07T01:36:18.570Z,96864.66
2024-02-07T01:38:45.425Z,96858.94
2024-02-07T01:41:12.453Z,96864.06
2024-02-07T01:43:39.402Z,96863.31
2024-02-07T01:46:06.426Z,96855.69
2024-02-07T01:48:33.700Z,96857.25
2024-02-07T01:51:02.974Z,96857.25
2024-02-07T01:53:31.342Z,96846.25
2024-02-07T01:56:00.606Z,96847.34
2024-02-07T01:58:31.425Z,96843.47
2024-02-07T02:01:00.185Z,96840.41
2024-02-07T02:03:27.282Z,96836.84
2024-02-07T02:05:54.231Z,96828.94
2024-02-07T02:08:21.326Z,96824.44
2024-02-07T02:10:52.668Z,96831.25
2024-02-07T02:13:19.787Z,96823.34
2024-02-07T02:15:47.548Z,96813.91
2024-02-07T02:18:14.449Z,96815.78
2024-02-07T02:20:43.571Z,96817.63
2024-02-07T02:23:16.476Z,96812.06
2024-02-07T02:26:01.344Z,96817.63
2024-02-07T02:28:37.942Z,96808.19
2024-02-07T02:31:08.905Z,96812.38
2024-02-07T02:33:38.788Z,96813.13
2024-02-07T02:36:06.978Z,96799.97
2024-02-07T02:38:37.138Z,96795.16
2024-02-07T02:41:10.324Z,96800.13
2024-02-07T02:43:38.686Z,96789.91
2024-02-07T02:46:05.944Z,96794.72
2024-02-07T02:48:33.096Z,96792.09
2024-02-07T02:51:02.021Z,96796.25
2024-02-07T02:53:33.240Z,96777.06
2024-02-07T02:56:06.802Z,96784.19
2024-02-07T02:58:42.564Z,96778.47
2024-02-07T03:01:11.970Z,96772.13
2024-02-07T03:03:39.739Z,96752.47
2024-02-07T03:06:19.988Z,96758.34
2024-02-07T03:08:55.860Z,96744.28
2024-02-07T03:11:23.268Z,96761.63
2024-02-07T03:13:50.162Z,96748.78
2024-02-07T03:16:17.096Z,96742.44
2024-02-07T03:18:43.984Z,96750.31
2024-02-07T03:21:11.821Z,96754.50
2024-02-07T03:23:39.496Z,96739.47
2024-02-07T03:26:06.580Z,96734.53
2024-02-07T03:28:33.568Z,96729.28
2024-02-07T03:31:00.646Z,96735.31
2024-02-07T03:33:28.211Z,96726.94
2024-02-07T03:35:55.488Z,96720.13
2024-02-07T03:38:22.710Z,96725.09
2024-02-07T03:40:51.359Z,96723.69
2024-02-07T03:43:19.319Z,96725.22
2024-02-07T03:45:46.254Z,96722.59
2024-02-07T03:48:18.754Z,96719.97
2024-02-07T03:50:49.930Z,96716.56
2024-02-07T03:53:20.639Z,96720.41
2024-02-07T03:55:50.001Z,96715.63
2024-02-07T03:58:17.240Z,96710.81
2024-02-07T04:00:44.883Z,96712.03
2024-02-07T04:03:11.804Z,96717.28
2024-02-07T04:05:39.150Z,96701.34
2024-02-07T04:08:06.523Z,96704.25
2024-02-07T04:10:43.216Z,96698.03
2024-02-07T04:13:11.524Z,96699.56
2024-02-07T04:15:56.828Z,96693.06
2024-02-07T04:18:41.858Z,96688.25
2024-02-07T04:21:27.274Z,96695.13
2024-02-07T04:24:12.610Z,96699.88
2024-02-07T04:26:57.720Z,96696.34
2024-02-07T04:29:43.367Z,96692.31
2024-02-07T04:32:28.386Z,96696.94
2024-02-07T04:35:13.487Z,96700.38
2024-02-07T04:37:58.729Z,96689.22
2024-02-07T04:40:43.985Z,96687.03
2024-02-07T04:43:29.486Z,96675.88
2024-02-07T04:46:15.174Z,96680.81
2024-02-07T04:49:00.927Z,96679.72
2024-02-07T04:51:46.674Z,96678.44
2024-02-07T04:54:32.325Z,96680.75
2024-02-07T04:57:18.207Z,96675.50
2024-02-07T05:00:03.678Z,96665.72
2024-02-07T05:02:48.776Z,96663.88
2024-02-07T05:05:34.324Z,96660.47
2024-02-07T05:08:20.145Z,96680.75
2024-02-07T05:11:05.958Z,96653.97
2024-02-07T05:13:51.597Z,96652.13
2024-02-07T05:16:18.604Z,96662.31
2024-02-07T05:18:45.578Z,96654.44
2024-02-07T05:21:14.743Z,96668.69
2024-02-07T05:23:42.392Z,96652.88
2024-02-07T05:26:14.341Z,96652.22
2024-02-07T05:28:43.117Z,96655.63
2024-02-07T05:31:10.047Z,96655.31
2024-02-07T05:33:37.164Z,96656.56
2024-02-07T05:36:04.298Z,96651.88
2024-02-07T05:38:31.993Z,96642.88
2024-02-07T05:41:01.320Z,96632.78
2024-02-07T05:43:28.708Z,96645.50
2024-02-07T05:45:58.024Z,96654.19
2024-02-07T05:48:26.238Z,96644.41
2024-02-07T05:50:52.941Z,96639.16
2024-02-07T05:53:19.682Z,96653.41
2024-02-07T05:55:46.695Z,96643.31
2024-02-07T05:58:13.524Z,96652.44
2024-02-07T06:00:42.190Z,96641.91
2024-02-07T06:03:09.360Z,96640.69
2024-02-07T06:05:36.022Z,96631.88
2024-02-07T06:08:03.139Z,96627.06
2024-02-07T06:10:31.319Z,96633.88
2024-02-07T06:12:58.218Z,96630.47
2024-02-07T06:15:25.044Z,96614.34
2024-02-07T06:17:51.819Z,96632.47
2024-02-07T06:20:18.990Z,96630.16
2024-02-07T06:22:49.297Z,96630.91
2024-02-07T06:25:16.885Z,96633.88
2024-02-07T06:27:43.915Z,96628.63
2024-02-07T06:30:11.050Z,96636.19
2024-02-07T06:32:38.828Z,96635.09
2024-02-07T06:35:06.070Z,96626.41
2024-02-07T06:37:33.125Z,96629.19
2024-02-07T06:39:59.875Z,96634.59
2024-02-07T06:42:26.624Z,96627.88
2024-02-07T06:44:53.425Z,96628.38
2024-02-07T06:47:20.149Z,96632.66
2024-02-07T06:49:46.890Z,96623.34
2024-02-07T06:52:13.772Z,96641.00
2024-02-07T06:54:40.444Z,96634.31
2024-02-07T06:57:07.279Z,96636.19
2024-02-07T06:59:34.595Z,96630.47
2024-02-07T07:02:01.574Z,96632.03
2024-02-07T07:04:28.523Z,96640.69
2024-02-07T07:06:55.519Z,96636.81
2024-02-07T07:09:22.245Z,96630.16
2024-02-07T07:11:49.011Z,96635.09
2024-02-07T07:14:16.168Z,96628.28
2024-02-07T07:16:43.238Z,96624.88
2024-02-07T07:19:13.558Z,96617.75
2024-02-07T07:21:40.802Z,96629.06
2024-02-07T07:24:08.003Z,96628.72
2024-02-07T07:26:34.744Z,96630.59
2024-02-07T07:29:01.597Z,96632.91
2024-02-07T07:31:31.304Z,96616.00
2024-02-07T07:34:00.383Z,96614.28
2024-02-07T07:36:29.207Z,96610.53
2024-02-07T07:38:57.288Z,96622.28
2024-02-07T07:41:24.412Z,96613.28
2024-02-07T07:43:52.498Z,96617.16
2024-02-07T07:46:19.684Z,96607.06
2024-02-07T07:48:46.902Z,96617.25
2024-02-07T07:51:16.573Z,96610.13
2024-02-07T07:53:44.090Z,96615.53
2024-02-07T07:56:32.444Z,96628.72
2024-02-07T07:58:59.382Z,96607.75
2024-02-07T08:01:26.998Z,96615.66
2024-02-07T08:03:54.561Z,96598.41
2024-02-07T08:06:22.815Z,96609.41
2024-02-07T08:08:49.942Z,96597.44
2024-02-07T08:11:16.563Z,96598.97
2024-02-07T08:13:43.338Z,96606.88
2024-02-07T08:16:10.174Z,96610.41
2024-02-07T08:18:37.044Z,96600.63
2024-02-07T08:21:04.637Z,96602.94
2024-02-07T08:23:31.653Z,96599.97
2024-02-07T08:25:58.620Z,96594.06
2024-02-07T08:28:25.639Z,96590.00
2024-02-07T08:30:52.607Z,96598.34
2024-02-07T08:33:20.632Z,96595.06
2024-02-07T08:35:48.956Z,96595.94
2024-02-07T08:38:15.836Z,96594.97
2024-02-07T08:40:42.971Z,96591.03
2024-02-07T08:43:09.921Z,96599.50
2024-02-07T08:45:39.159Z,96586.44
2024-02-07T08:48:08.337Z,96594.09
2024-02-07T08:50:35.362Z,96578.75
2024-02-07T08:53:02.401Z,96587.53
2024-02-07T08:55:29.412Z,96583.78
2024-02-07T08:57:56.389Z,96572.91
2024-02-07T09:00:23.231Z,96571.56
2024-02-07T09:02:52.498Z,96579.94
2024-02-07T09:05:21.806Z,96582.25
2024-02-07T09:07:49.193Z,96584.22
2024-02-07T09:10:16.961Z,96572.13
2024-02-07T09:12:44.412Z,96567.41
2024-02-07T09:15:11.425Z,96570.59
2024-02-07T09:17:38.321Z,96571.47
2024-02-07T09:20:06.335Z,96568.16
2024-02-07T09:22:33.471Z,96556.59
2024-02-07T09:25:00.300Z,96564.75
2024-02-07T09:27:27.209Z,96556.25
2024-02-07T09:30:03.716Z,96547.44
2024-02-07T09:32:40.070Z,96538.69
2024-02-07T09:35:09.441Z,96536.59
2024-02-07T09:37:38.206Z,96552.09
2024-02-07T09:40:05.927Z,96530.53
2024-02-07T09:42:35.497Z,96529.44
2024-02-07T09:45:04.926Z,96532.41
2024-02-07T09:47:39.370Z,96522.72
2024-02-07T09:50:11.250Z,96519.06
2024-02-07T09:52:40.678Z,96519.69
2024-02-07T09:55:09.760Z,96519.75
2024-02-07T09:57:38.280Z,96512.53
2024-02-07T10:00:05.849Z,96514.84
2024-02-07T10:02:37.857Z,96525.88
2024-02-07T10:05:07.417Z,96517.78
2024-02-07T10:07:36.178Z,96506.91
2024-02-07T10:10:03.835Z,96502.06
2024-02-07T10:12:31.923Z,96502.06
2024-02-07T10:14:59.659Z,96509.66
2024-02-07T10:17:26.579Z,96505.66
2024-02-07T10:19:53.612Z,96500.53
2024-02-07T10:22:22.076Z,96492.41
2024-02-07T10:24:49.152Z,96500.50
2024-02-07T10:27:23.326Z,96495.97
2024-02-07T10:29:50.384Z,96517.56
2024-02-07T10:32:22.180Z,96498.19
2024-02-07T10:34:57.160Z,96487.94
2024-02-07T10:37:25.084Z,96493.16
2024-02-07T10:40:03.909Z,96470.38
2024-02-07T10:42:31.329Z,96480.88
2024-02-07T10:45:05.897Z,96484.97
2024-02-07T10:47:34.859Z,96477.38
2024-02-07T10:50:06.620Z,96484.13
2024-02-07T10:52:36.353Z,96481.84
2024-02-07T10:55:07.397Z,96490.88
2024-02-07T10:57:42.378Z,96477.31
2024-02-07T11:00:10.439Z,96462.53
2024-02-07T11:02:37.403Z,96482.59
2024-02-07T11:05:06.602Z,96467.50
2024-02-07T11:07:33.977Z,96461.44
2024-02-07T11:10:02.652Z,96481.06
2024-02-07T11:12:30.770Z,96464.44
2024-02-07T11:14:59.636Z,96450.75
2024-02-07T11:17:26.698Z,96443.25
2024-02-07T11:19:53.618Z,96435.72
2024-02-07T11:22:42.862Z,96431.63
2024-02-07T11:25:15.156Z,96437.78
2024-02-07T11:27:42.380Z,96432.91
2024-02-07T11:30:11.241Z,96430.00
2024-02-07T11:32:42.018Z,96427.06
2024-02-07T11:35:11.181Z,96411.31
2024-02-07T11:37:40.317Z,96414.88
2024-02-07T11:40:10.186Z,96404.78
2024-02-07T11:42:39.505Z,96392.81
2024-02-07T11:45:07.374Z,96389.44
2024-02-07T11:47:35.600Z,96397.03
2024-02-07T11:50:07.410Z,96389.09
2024-02-07T11:52:36.017Z,96392.44
2024-02-07T11:55:04.775Z,96376.56
2024-02-07T11:57:33.301Z,96371.25
2024-02-07T12:00:02.308Z,96398.94
2024-02-07T12:02:29.578Z,96376.63
2024-02-07T12:04:57.258Z,96372.09
2024-02-07T12:07:24.714Z,96363.47
2024-02-07T12:09:52.155Z,96349.84
2024-02-07T12:12:19.448Z,96364.34
2024-02-07T12:14:49.016Z,96354.59
2024-02-07T12:17:16.271Z,96342.59
2024-02-07T12:19:45.662Z,96354.78
2024-02-07T12:22:19.824Z,96338.25
2024-02-07T12:24:47.524Z,96338.72
2024-02-07T12:27:17.314Z,96319.50
2024-02-07T12:29:55.586Z,96335.13
2024-02-07T12:32:23.859Z,96335.53
2024-02-07T12:34:51.731Z,96330.31
2024-02-07T12:37:20.919Z,96329.53
2024-02-07T12:39:49.884Z,96320.53
2024-02-07T12:42:27.745Z,96310.00
2024-02-07T12:44:55.596Z,96308.81
2024-02-07T12:47:23.853Z,96320.53
2024-02-07T12:49:52.445Z,96302.75
2024-02-07T12:52:21.106Z,96290.25
2024-02-07T12:54:48.775Z,96301.63
2024-02-07T12:57:26.640Z,96291.09
2024-02-07T12:59:54.707Z,96284.69
2024-02-07T13:02:21.836Z,96280.59
2024-02-07T13:04:49.428Z,96277.63
2024-02-07T13:07:17.464Z,96277.28
2024-02-07T13:09:46.143Z,96275.06
2024-02-07T13:12:23.798Z,96267.22
2024-02-07T13:14:57.025Z,96266.16
2024-02-07T13:17:23.908Z,96255.94
2024-02-07T13:19:50.791Z,96256.78
2024-02-07T13:22:17.710Z,96252.63
2024-02-07T13:24:44.667Z,96243.59
2024-02-07T13:27:12.554Z,96243.25
2024-02-07T13:29:42.316Z,96234.53
2024-02-07T13:32:14.598Z,96231.53
2024-02-07T13:34:46.950Z,96219.81
2024-02-07T13:37:14.419Z,96221.72
2024-02-07T13:39:41.433Z,96220.25
2024-02-07T13:42:08.175Z,96222.59
2024-02-07T13:44:35.890Z,96223.38
2024-02-07T13:47:03.490Z,96217.00
2024-02-07T13:49:30.675Z,96215.50
2024-02-07T13:51:58.299Z,96226.97
2024-02-07T13:54:25.242Z,96197.53
2024-02-07T13:56:51.943Z,96205.63
2024-02-07T13:59:18.884Z,96198.88
2024-02-07T14:01:45.709Z,96190.53
2024-02-07T14:04:12.687Z,96184.53
2024-02-07T14:06:39.574Z,96178.06
2024-02-07T14:09:06.593Z,96193.41
2024-02-07T14:11:33.654Z,96192.78
2024-02-07T14:14:00.661Z,96185.25
2024-02-07T14:16:27.706Z,96178.78
2024-02-07T14:18:54.587Z,96195.06
2024-02-07T14:21:21.350Z,96175.59
2024-02-07T14:23:48.409Z,96163.78
2024-02-07T14:26:15.117Z,96166.09
2024-02-07T14:28:41.945Z,96165.69
2024-02-07T14:31:08.715Z,96152.78
2024-02-07T14:33:35.487Z,96154.69
2024-02-07T14:36:02.192Z,96174.09
2024-02-07T14:38:29.812Z,96150.94
2024-02-07T14:40:58.981Z,96147.84
2024-02-07T14:43:26.121Z,96153.47
2024-02-07T14:45:52.922Z,96140.91
2024-02-07T14:48:20.513Z,96132.53
2024-02-07T14:50:47.964Z,96141.97
2024-02-07T14:53:14.882Z,96131.66
2024-02-07T14:55:43.278Z,96124.03
2024-02-07T14:58:10.295Z,96120.25
2024-02-07T15:00:38.897Z,96108.88
2024-02-07T15:03:12.173Z,96110.03
2024-02-07T15:05:39.198Z,96101.41
2024-02-07T15:08:06.924Z,96100.72
2024-02-07T15:10:33.964Z,96085.66
2024-02-07T15:13:01.177Z,96088.03
2024-02-07T15:15:28.089Z,96088.84
2024-02-07T15:17:55.202Z,96078.63
2024-02-07T15:20:22.211Z,96095.34
2024-02-07T15:22:49.229Z,96082.81
2024-02-07T15:25:16.928Z,96086.97
2024-02-07T15:27:44.117Z,96077.47
2024-02-07T15:30:14.615Z,96075.91
2024-02-07T15:32:41.981Z,96079.25
2024-02-07T15:35:10.251Z,96098.94
2024-02-07T15:37:37.268Z,96071.53
2024-02-07T15:40:04.236Z,96078.69
2024-02-07T15:42:31.479Z,96083.59
2024-02-07T15:44:58.328Z,96071.06
2024-02-07T15:47:25.330Z,96074.03
2024-02-07T15:49:52.425Z,96064.13
2024-02-07T15:52:19.457Z,96064.88
2024-02-07T15:54:46.578Z,96060.69
2024-02-07T15:57:13.335Z,96053.44
2024-02-07T15:59:40.155Z,96061.78
2024-02-07T16:02:07.137Z,96052.69
2024-02-07T16:04:34.268Z,96049.97
2024-02-07T16:07:02.741Z,96043.91
2024-02-07T16:09:29.778Z,96053.34
2024-02-07T16:11:56.676Z,96040.47
2024-02-07T16:14:23.561Z,96054.53
2024-02-07T16:16:50.865Z,96051.47
2024-02-07T16:19:18.028Z,96048.03
2024-02-07T16:21:45.090Z,96047.28
2024-02-07T16:24:11.857Z,96055.59
2024-02-07T16:26:38.756Z,96041.94
2024-02-07T16:29:05.710Z,96054.41
2024-02-07T16:31:32.832Z,96046.44
2024-02-07T16:33:59.789Z,96048.69
2024-02-07T16:36:26.760Z,96046.00
2024-02-07T16:38:53.704Z,96045.22
2024-02-07T16:41:20.722Z,96046.28
2024-02-07T16:43:49.528Z,96033.28
2024-02-07T16:46:17.044Z,96035.94
2024-02-07T16:48:44.040Z,96040.09
2024-02-07T16:51:11.004Z,96035.84
2024-02-07T16:53:39.110Z,96026.31
2024-02-07T16:56:06.519Z,96036.91
2024-02-07T16:58:33.975Z,96035.34
2024-02-07T17:01:01.042Z,96029.66
2024-02-07T17:03:28.086Z,96031.91
2024-02-07T17:05:54.848Z,96022.81
2024-02-07T17:08:21.962Z,96030.69
2024-02-07T17:10:49.729Z,96023.84
2024-02-07T17:13:21.122Z,96019.63
2024-02-07T17:15:49.116Z,96020.00
2024-02-07T17:18:18.801Z,96007.81
2024-02-07T17:20:51.503Z,96009.31
2024-02-07T17:23:19.254Z,96013.09
2024-02-07T17:25:46.364Z,96011.16
2024-02-07T17:28:15.174Z,96015.28
2024-02-07T17:30:43.685Z,96011.47
2024-02-07T17:33:10.937Z,96008.81
2024-02-07T17:35:37.978Z,96006.88
2024-02-07T17:38:05.322Z,96017.47
2024-02-07T17:40:32.692Z,96016.00
2024-02-07T17:42:59.797Z,96001.28
2024-02-07T17:45:27.388Z,96002.06
2024-02-07T17:47:54.681Z,96013.84
2024-02-07T17:50:26.869Z,96010.84
2024-02-07T17:52:54.109Z,96004.41
2024-02-07T17:55:21.672Z,96011.22
2024-02-07T17:57:48.856Z,96008.97
2024-02-07T18:00:17.570Z,96030.19
2024-02-07T18:02:46.123Z,96012.75
2024-02-07T18:05:13.327Z,96027.50
2024-02-07T18:07:40.773Z,96001.00
2024-02-07T18:10:11.980Z,95991.13
2024-02-07T18:12:39.593Z,96021.81
2024-02-07T18:15:06.757Z,96009.72
2024-02-07T18:17:33.932Z,96013.13
2024-02-07T18:20:01.015Z,96025.25
2024-02-07T18:22:27.987Z,96011.59
2024-02-07T18:24:54.818Z,96031.19
2024-02-07T18:27:21.902Z,96013.28
2024-02-07T18:29:48.849Z,96009.44
2024-02-07T18:32:16.336Z,96017.28
2024-02-07T18:34:43.368Z,96019.16
2024-02-07T18:37:10.746Z,96016.81
2024-02-07T18:39:37.872Z,96032.25
2024-02-07T18:42:05.159Z,96027.69
2024-02-07T18:44:32.235Z,96018.59
2024-02-07T18:46:59.131Z,96026.47
2024-02-07T18:49:27.243Z,96012.44
2024-02-07T18:51:54.296Z,96044.16
2024-02-07T18:54:21.045Z,96037.28
2024-02-07T18:56:48.337Z,96017.16
2024-02-07T18:59:15.374Z,96020.13
2024-02-07T19:01:42.580Z,96013.66
2024-02-07T19:04:12.512Z,96027.97
2024-02-07T19:06:39.378Z,96019.63
2024-02-07T19:09:06.730Z,96007.09
2024-02-07T19:11:33.704Z,96001.75
2024-02-07T19:14:02.200Z,95999.41
2024-02-07T19:16:30.749Z,96000.84
2024-02-07T19:19:00.625Z,96007.94
2024-02-07T19:21:28.528Z,96001.84
2024-02-07T19:23:55.434Z,95987.78
2024-02-07T19:26:22.557Z,96004.75
2024-02-07T19:28:49.637Z,95989.16
2024-02-07T19:31:16.541Z,95979.72
2024-02-07T19:33:43.393Z,96017.09
2024-02-07T19:36:12.310Z,95981.88
2024-02-07T19:38:39.093Z,95980.34
2024-02-07T19:41:06.010Z,95987.13
2024-02-07T19:43:32.784Z,95978.78
2024-02-07T19:46:00.062Z,95982.13
2024-02-07T19:48:26.967Z,95976.47
2024-02-07T19:50:53.850Z,95977.97
2024-02-07T19:53:20.659Z,95985.13
2024-02-07T19:55:47.477Z,95976.00
2024-02-07T19:58:16.126Z,95975.59
2024-02-07T20:00:43.289Z,95979.38
2024-02-07T20:03:10.353Z,95969.56
2024-02-07T20:05:37.788Z,95972.56
2024-02-07T20:08:05.421Z,95973.28
2024-02-07T20:10:32.608Z,95978.91
2024-02-07T20:12:59.930Z,95970.19
2024-02-07T20:15:26.918Z,95983.44
2024-02-07T20:17:53.698Z,95993.59
2024-02-07T20:20:20.828Z,95973.94
2024-02-07T20:22:47.882Z,95971.28
2024-02-07T20:25:15.950Z,95972.41
2024-02-07T20:27:42.835Z,95973.09
2024-02-07T20:30:09.898Z,95968.91
2024-02-07T20:32:36.790Z,95972.72
2024-02-07T20:35:04.172Z,95973.50
2024-02-07T20:37:31.264Z,95964.78
2024-02-07T20:39:58.333Z,95958.00
2024-02-07T20:42:28.715Z,95950.81
2024-02-07T20:44:57.776Z,95959.09
2024-02-07T20:47:24.639Z,95953.06
2024-02-07T20:49:51.402Z,95954.59
2024-02-07T20:52:18.122Z,95967.03
2024-02-07T20:54:46.084Z,95969.69
2024-02-07T20:57:15.208Z,95962.47
2024-02-07T20:59:42.833Z,95974.16
2024-02-07T21:02:09.537Z,95966.22
2024-02-07T21:04:36.935Z,95961.72
2024-02-07T21:07:04.026Z,95953.00
2024-02-07T21:09:30.897Z,95982.84
2024-02-07T21:11:57.702Z,95958.72
2024-02-07T21:14:24.526Z,95951.53
2024-02-07T21:16:51.350Z,95972.69
2024-02-07T21:19:18.223Z,95948.88
2024-02-07T21:21:45.091Z,95964.75
2024-02-07T21:24:11.786Z,95960.94
2024-02-07T21:26:38.704Z,95953.34
2024-02-07T21:29:05.907Z,95962.75
2024-02-07T21:31:32.917Z,95954.81
2024-02-07T21:33:59.756Z,95953.31
2024-02-07T21:36:26.971Z,95956.34
2024-02-07T21:38:53.731Z,95948.81
2024-02-07T21:41:20.452Z,95952.59
2024-02-07T21:43:47.471Z,95954.09
2024-02-07T21:46:15.785Z,95965.13
2024-02-07T21:48:42.644Z,95968.88
2024-02-07T21:51:09.905Z,95940.88
2024-02-07T21:53:36.690Z,95953.41
2024-02-07T21:56:03.691Z,95947.00
2024-02-07T21:58:30.445Z,95955.34
2024-02-07T22:00:57.191Z,95962.09
2024-02-07T22:03:23.995Z,95956.81
2024-02-07T22:05:51.371Z,95943.59
2024-02-07T22:08:18.370Z,95944.38
2024-02-07T22:10:45.671Z,95943.97
2024-02-07T22:13:12.573Z,95954.53
2024-02-07T22:15:39.482Z,95937.16
2024-02-07T22:18:06.461Z,95943.19
2024-02-07T22:20:33.276Z,95930.75
2024-02-07T22:23:00.343Z,95932.25
2024-02-07T22:25:27.385Z,95940.97
2024-02-07T22:27:54.223Z,95934.53
2024-02-07T22:30:20.992Z,95929.25
2024-02-07T22:32:52.149Z,95930.03
2024-02-07T22:35:19.608Z,95930.03
2024-02-07T22:37:47.250Z,95942.13
2024-02-07T22:40:16.541Z,95934.19
2024-02-07T22:42:43.480Z,95927.78
2024-02-07T22:45:10.248Z,95928.59
2024-02-07T22:47:37.713Z,95932.00
2024-02-07T22:50:05.263Z,95944.53
2024-02-07T22:52:32.245Z,95935.47
2024-02-07T22:54:59.504Z,95959.25
2024-02-07T22:57:26.235Z,95932.81
2024-02-07T22:59:52.979Z,95933.59
2024-02-07T23:02:22.837Z,95936.66
2024-02-07T23:04:51.473Z,95940.47
2024-02-07T23:07:19.330Z,95949.16
2024-02-07T23:09:46.682Z,95957.50
2024-02-07T23:12:13.445Z,95939.78
2024-02-07T23:14:40.109Z,95943.19
2024-02-07T23:17:07.324Z,95942.06
2024-02-07T23:19:34.259Z,95935.63
2024-02-07T23:22:04.739Z,95954.16
2024-02-07T23:24:31.521Z,95942.06
2024-02-07T23:26:58.436Z,95944.69
2024-02-07T23:29:25.246Z,95954.16
2024-02-07T23:31:52.254Z,95953.03
2024-02-07T23:34:19.074Z,95948.88
2024-02-07T23:36:46.248Z,95954.56
2024-02-07T23:39:13.106Z,95952.69
2024-02-07T23:41:40.500Z,95953.44
2024-02-07T23:44:07.294Z,95958.72
2024-02-07T23:46:35.769Z,95943.97
2024-02-07T23:49:03.480Z,95965.13
2024-02-07T23:51:30.305Z,95967.44
2024-02-07T23:53:57.330Z,95960.25
2024-02-07T23:56:24.118Z,95953.88
2024-02-07T23:58:51.228Z,95937.56
